createdAt,value
2022-07-31T00:00:18.090Z,3.70
2022-07-31T00:02:45.356Z,3.65
2022-07-31T00:05:12.473Z,4.00
2022-07-31T00:07:39.567Z,3.58
2022-07-31T00:10:07.093Z,3.65
2022-07-31T00:12:35.118Z,3.58
2022-07-31T00:15:04.249Z,4.32
2022-07-31T00:17:33.381Z,4.68
2022-07-31T00:20:00.360Z,4.03
2022-07-31T00:22:27.442Z,3.95
2022-07-31T00:24:54.492Z,4.18
2022-07-31T00:27:21.748Z,4.57
2022-07-31T00:29:48.734Z,4.32
2022-07-31T00:32:15.839Z,3.83
2022-07-31T00:34:42.921Z,4.40
2022-07-31T00:37:10.276Z,4.95
2022-07-31T00:39:40.129Z,5.35
2022-07-31T00:42:17.837Z,5.07
2022-07-31T00:44:47.772Z,4.28
2022-07-31T00:47:15.830Z,4.95
2022-07-31T00:49:43.440Z,4.72
2022-07-31T00:52:10.437Z,4.97
2022-07-31T00:54:37.890Z,4.78
2022-07-31T00:57:05.647Z,5.15
2022-07-31T00:59:33.511Z,4.32
2022-07-31T01:02:00.982Z,5.60
2022-07-31T01:04:28.149Z,5.45
2022-07-31T01:06:59.547Z,5.78
2022-07-31T01:09:27.052Z,5.40
2022-07-31T01:12:05.400Z,5.00
2022-07-31T01:14:37.073Z,5.32
2022-07-31T01:17:07.866Z,5.05
2022-07-31T01:19:42.851Z,4.78
2022-07-31T01:22:33.532Z,4.88
2022-07-31T01:25:04.579Z,4.72
2022-07-31T01:27:49.330Z,5.10
2022-07-31T01:30:17.880Z,4.72
2022-07-31T01:32:50.677Z,5.22
2022-07-31T01:35:32.571Z,5.68
2022-07-31T01:38:07.551Z,4.97
2022-07-31T01:40:41.439Z,4.80
2022-07-31T01:43:14.934Z,4.78
2022-07-31T01:45:44.015Z,5.78
2022-07-31T01:48:14.664Z,5.43
2022-07-31T01:50:46.555Z,5.05
2022-07-31T01:53:16.292Z,5.10
2022-07-31T01:56:02.710Z,4.72
2022-07-31T01:58:35.082Z,5.38
2022-07-31T02:01:04.055Z,4.85
2022-07-31T02:03:43.505Z,5.25
2022-07-31T02:06:18.126Z,5.63
2022-07-31T02:08:53.523Z,5.40
2022-07-31T02:11:21.444Z,5.32
2022-07-31T02:13:49.586Z,5.78
2022-07-31T02:16:18.358Z,5.68
2022-07-31T02:18:48.324Z,5.68
2022-07-31T02:21:16.284Z,5.95
2022-07-31T02:23:43.395Z,5.45
2022-07-31T02:26:11.507Z,5.72
2022-07-31T02:28:42.245Z,5.20
2022-07-31T02:31:13.257Z,5.85
2022-07-31T02:33:43.398Z,5.50
2022-07-31T02:36:13.279Z,5.32
2022-07-31T02:38:42.740Z,5.40
2022-07-31T02:41:11.481Z,5.45
2022-07-31T02:43:40.075Z,5.53
2022-07-31T02:46:08.634Z,5.07
2022-07-31T02:48:37.430Z,5.43
2022-07-31T02:51:05.009Z,5.05
2022-07-31T02:53:33.697Z,5.07
2022-07-31T02:56:02.337Z,5.47
2022-07-31T02:58:29.480Z,4.82
2022-07-31T03:01:05.307Z,5.20
2022-07-31T03:03:32.738Z,5.97
2022-07-31T03:06:00.141Z,4.93
2022-07-31T03:08:30.177Z,5.25
2022-07-31T03:10:58.331Z,5.20
2022-07-31T03:13:28.037Z,4.80
2022-07-31T03:15:56.050Z,5.90
2022-07-31T03:18:24.369Z,6.03
2022-07-31T03:20:52.169Z,5.25
2022-07-31T03:23:21.837Z,5.45
2022-07-31T03:25:50.424Z,5.45
2022-07-31T03:28:20.802Z,4.90
2022-07-31T03:30:56.170Z,5.30
2022-07-31T03:33:23.862Z,4.55
2022-07-31T03:35:51.480Z,4.75
2022-07-31T03:38:39.632Z,5.63
2022-07-31T03:41:05.696Z,5.18
2022-07-31T03:43:46.954Z,4.72
2022-07-31T03:46:17.351Z,5.50
2022-07-31T03:48:45.302Z,5.10
2022-07-31T03:51:13.489Z,5.03
2022-07-31T03:53:41.523Z,5.10
2022-07-31T03:56:09.857Z,5.65
2022-07-31T03:58:38.654Z,5.18
2022-07-31T04:01:10.497Z,5.45
2022-07-31T04:03:39.486Z,5.00
2022-07-31T04:06:06.877Z,5.10
2022-07-31T04:08:34.448Z,5.38
2022-07-31T04:11:01.526Z,5.32
2022-07-31T04:13:28.622Z,5.47
2022-07-31T04:15:55.735Z,5.00
2022-07-31T04:18:22.753Z,5.32
2022-07-31T04:20:50.371Z,5.72
2022-07-31T04:23:17.426Z,5.97
2022-07-31T04:25:44.505Z,4.88
2022-07-31T04:28:11.660Z,5.45
2022-07-31T04:30:39.328Z,4.82
2022-07-31T04:33:06.474Z,5.32
2022-07-31T04:35:33.599Z,10.48
2022-07-31T04:38:01.084Z,6.75
2022-07-31T04:40:28.942Z,4.88
2022-07-31T04:42:55.944Z,5.80
2022-07-31T04:45:22.928Z,5.80
2022-07-31T04:47:49.969Z,5.85
2022-07-31T04:50:17.196Z,6.60
2022-07-31T04:52:44.284Z,6.07
2022-07-31T04:55:11.460Z,6.22
2022-07-31T04:57:38.778Z,6.13
2022-07-31T05:00:10.550Z,5.78
2022-07-31T05:02:38.133Z,5.60
2022-07-31T05:05:05.512Z,7.97
2022-07-31T05:07:32.793Z,7.18
2022-07-31T05:09:59.787Z,5.18
2022-07-31T05:12:27.121Z,5.28
2022-07-31T05:14:54.125Z,6.00
2022-07-31T05:17:21.250Z,6.13
2022-07-31T05:19:48.245Z,6.10
2022-07-31T05:22:15.409Z,6.25
2022-07-31T05:24:43.188Z,6.20
2022-07-31T05:27:10.332Z,5.78
2022-07-31T05:29:37.296Z,6.50
2022-07-31T05:32:05.216Z,6.40
2022-07-31T05:34:32.178Z,6.35
2022-07-31T05:37:03.637Z,7.18
2022-07-31T05:39:31.487Z,6.53
2022-07-31T05:41:58.599Z,6.07
2022-07-31T05:44:25.720Z,5.30
2022-07-31T05:49:19.621Z,6.70
2022-07-31T05:51:47.114Z,5.75
2022-07-31T05:54:14.515Z,5.22
2022-07-31T05:56:41.603Z,5.65
2022-07-31T05:59:09.877Z,6.55
2022-07-31T06:01:37.599Z,6.10
2022-07-31T06:04:04.648Z,5.45
2022-07-31T06:06:31.773Z,5.40
2022-07-31T06:09:04.103Z,5.55
2022-07-31T06:11:32.269Z,5.90
2022-07-31T06:13:59.217Z,5.22
2022-07-31T06:16:26.873Z,4.93
2022-07-31T06:18:54.388Z,5.22
2022-07-31T06:23:47.099Z,5.25
2022-07-31T06:26:14.346Z,4.55
2022-07-31T06:28:48.481Z,4.30
2022-07-31T06:31:19.589Z,4.38
2022-07-31T06:33:48.008Z,4.00
2022-07-31T06:36:16.228Z,4.43
2022-07-31T06:38:43.261Z,4.35
2022-07-31T06:41:10.401Z,3.83
2022-07-31T06:43:37.462Z,3.78
2022-07-31T06:46:04.468Z,4.13
2022-07-31T06:48:31.551Z,3.78
2022-07-31T06:53:45.525Z,3.10
2022-07-31T06:56:12.583Z,3.13
2022-07-31T06:58:39.521Z,2.60
2022-07-31T07:01:06.731Z,2.80
2022-07-31T07:03:34.020Z,2.70
2022-07-31T07:06:01.254Z,2.42
2022-07-31T07:08:28.979Z,2.45
2022-07-31T07:10:56.433Z,2.78
2022-07-31T07:13:23.580Z,2.83
2022-07-31T07:15:50.983Z,2.60
2022-07-31T07:18:18.463Z,2.47
2022-07-31T07:20:45.555Z,2.10
2022-07-31T07:23:12.613Z,2.40
2022-07-31T07:25:40.942Z,2.15
2022-07-31T07:28:12.143Z,2.00
2022-07-31T07:30:42.375Z,2.22
2022-07-31T07:33:09.457Z,2.90
2022-07-31T07:35:36.932Z,2.17
2022-07-31T07:38:03.892Z,1.58
2022-07-31T07:40:31.380Z,2.33
2022-07-31T07:43:02.960Z,1.80
2022-07-31T07:45:30.748Z,1.30
2022-07-31T07:48:07.090Z,1.73
2022-07-31T07:50:34.935Z,1.25
2022-07-31T07:53:02.086Z,1.65
2022-07-31T07:55:37.538Z,1.70
2022-07-31T07:58:08.863Z,1.40
2022-07-31T08:00:39.292Z,1.20
2022-07-31T08:03:50.311Z,1.77
2022-07-31T08:05:55.838Z,2.35
2022-07-31T08:08:22.927Z,1.05
2022-07-31T08:10:50.180Z,1.23
2022-07-31T08:13:17.217Z,1.30
2022-07-31T08:15:45.681Z,1.50
2022-07-31T08:18:12.668Z,1.48
2022-07-31T08:20:41.306Z,1.45
2022-07-31T08:23:08.282Z,1.83
2022-07-31T08:25:35.461Z,1.08
2022-07-31T08:28:02.403Z,1.02
2022-07-31T08:30:31.092Z,1.00
2022-07-31T08:32:58.321Z,1.02
2022-07-31T08:35:26.262Z,1.05
2022-07-31T08:38:03.334Z,1.20
2022-07-31T08:40:31.440Z,1.08
2022-07-31T08:43:01.051Z,0.93
2022-07-31T08:45:29.184Z,1.35
2022-07-31T08:47:59.295Z,1.20
2022-07-31T08:50:28.763Z,1.17
2022-07-31T08:52:57.674Z,1.30
2022-07-31T08:55:56.902Z,1.40
2022-07-31T08:58:12.248Z,1.80
2022-07-31T09:00:43.220Z,2.45
2022-07-31T09:03:10.770Z,1.35
2022-07-31T09:05:42.657Z,1.40
2022-07-31T09:08:14.741Z,1.60
2022-07-31T09:10:46.335Z,1.35
2022-07-31T09:13:18.689Z,1.13
2022-07-31T09:15:45.873Z,1.48
2022-07-31T09:18:22.056Z,1.23
2022-07-31T09:21:05.009Z,1.10
2022-07-31T09:23:33.080Z,1.00
2022-07-31T09:26:03.378Z,1.33
2022-07-31T09:28:41.972Z,1.33
2022-07-31T09:31:10.455Z,1.33
2022-07-31T09:33:45.180Z,1.40
2022-07-31T09:36:13.806Z,1.60
2022-07-31T09:38:43.183Z,2.17
2022-07-31T09:41:53.381Z,1.55
2022-07-31T09:44:10.506Z,1.33
2022-07-31T09:46:46.748Z,1.40
2022-07-31T09:49:14.321Z,1.45
2022-07-31T09:51:43.280Z,1.30
2022-07-31T09:54:26.501Z,1.67
2022-07-31T09:56:53.921Z,1.40
2022-07-31T09:59:21.021Z,1.25
2022-07-31T10:01:49.382Z,1.40
2022-07-31T10:04:21.568Z,1.33
2022-07-31T10:06:51.333Z,1.40
2022-07-31T10:09:22.039Z,1.25
2022-07-31T10:11:51.731Z,1.60
2022-07-31T10:14:28.438Z,1.40
2022-07-31T10:16:59.241Z,1.80
2022-07-31T10:19:32.139Z,1.08
2022-07-31T10:22:03.635Z,1.42
2022-07-31T10:24:34.256Z,1.35
2022-07-31T10:27:09.306Z,1.50
2022-07-31T10:29:39.514Z,1.30
2022-07-31T10:32:08.632Z,1.25
2022-07-31T10:34:37.146Z,1.10
2022-07-31T10:37:16.749Z,1.38
2022-07-31T10:39:55.156Z,1.23
2022-07-31T10:42:41.738Z,1.45
2022-07-31T10:45:11.497Z,1.08
2022-07-31T10:47:38.602Z,1.10
2022-07-31T10:50:06.775Z,1.20
2022-07-31T10:52:38.415Z,1.80
2022-07-31T10:55:19.430Z,1.10
2022-07-31T10:57:56.843Z,0.90
2022-07-31T11:00:29.667Z,1.02
2022-07-31T11:02:57.094Z,1.38
2022-07-31T11:05:27.473Z,1.77
2022-07-31T11:08:02.924Z,1.33
2022-07-31T11:10:30.861Z,1.25
2022-07-31T11:13:03.891Z,1.67
2022-07-31T11:15:31.741Z,1.02
2022-07-31T11:18:22.600Z,0.85
2022-07-31T11:20:47.871Z,0.77
2022-07-31T11:23:16.956Z,0.90
2022-07-31T11:25:47.036Z,1.10
2022-07-31T11:28:21.609Z,1.10
2022-07-31T11:30:49.022Z,1.10
2022-07-31T11:33:16.251Z,0.70
2022-07-31T11:35:43.351Z,1.20
2022-07-31T11:38:10.557Z,0.95
2022-07-31T11:40:38.677Z,0.75
2022-07-31T11:43:25.823Z,0.90
2022-07-31T11:45:55.162Z,0.68
2022-07-31T11:48:27.531Z,1.00
2022-07-31T11:50:54.870Z,0.90
2022-07-31T11:53:22.033Z,1.00
2022-07-31T11:55:51.889Z,1.02
2022-07-31T11:58:20.923Z,1.00
2022-07-31T12:01:01.785Z,1.20
2022-07-31T12:03:35.190Z,1.20
2022-07-31T12:06:03.721Z,1.30
2022-07-31T12:08:31.766Z,1.10
2022-07-31T12:11:00.920Z,1.00
2022-07-31T12:13:29.339Z,0.80
2022-07-31T12:16:02.104Z,1.10
2022-07-31T12:18:30.275Z,1.23
2022-07-31T12:21:00.514Z,0.75
2022-07-31T12:23:41.338Z,1.05
2022-07-31T12:26:12.335Z,0.95
2022-07-31T12:28:40.018Z,1.00
2022-07-31T12:31:06.992Z,1.83
2022-07-31T12:33:42.719Z,1.00
2022-07-31T12:36:15.369Z,1.05
2022-07-31T12:38:45.575Z,1.02
2022-07-31T12:41:15.378Z,1.15
2022-07-31T12:43:51.726Z,1.30
2022-07-31T12:46:21.745Z,1.00
2022-07-31T12:48:48.875Z,1.02
2022-07-31T12:51:17.844Z,0.93
2022-07-31T12:53:44.952Z,1.30
2022-07-31T12:56:12.460Z,0.82
2022-07-31T12:58:39.538Z,0.90
2022-07-31T13:01:08.892Z,0.95
2022-07-31T13:03:45.897Z,0.90
2022-07-31T13:06:14.432Z,0.88
2022-07-31T13:08:43.979Z,0.98
2022-07-31T13:11:11.439Z,0.82
2022-07-31T13:13:38.595Z,0.85
2022-07-31T13:16:05.815Z,0.98
2022-07-31T13:18:34.077Z,1.00
2022-07-31T13:21:02.148Z,1.00
2022-07-31T13:23:29.141Z,0.98
2022-07-31T13:25:57.341Z,0.90
2022-07-31T13:28:24.363Z,1.55
2022-07-31T13:30:55.040Z,0.80
2022-07-31T13:33:22.371Z,0.82
2022-07-31T13:35:49.437Z,1.10
2022-07-31T13:38:17.532Z,1.00
2022-07-31T13:41:02.934Z,1.40
2022-07-31T13:43:30.106Z,1.00
2022-07-31T13:45:57.094Z,1.13
2022-07-31T13:48:24.260Z,0.80
2022-07-31T13:50:51.249Z,1.00
2022-07-31T13:53:18.840Z,1.00
2022-07-31T13:55:49.947Z,1.25
2022-07-31T13:58:17.932Z,1.27
2022-07-31T14:00:44.951Z,1.00
2022-07-31T14:03:13.056Z,0.88
2022-07-31T14:05:45.564Z,0.95
2022-07-31T14:08:32.661Z,1.30
2022-07-31T14:11:02.185Z,1.00
2022-07-31T14:13:29.352Z,1.13
2022-07-31T14:15:56.882Z,1.10
2022-07-31T14:18:24.225Z,0.85
2022-07-31T14:20:52.465Z,0.70
2022-07-31T14:23:20.983Z,1.15
2022-07-31T14:26:03.153Z,1.33
2022-07-31T14:28:30.391Z,0.80
2022-07-31T14:30:57.610Z,1.10
2022-07-31T14:33:24.682Z,1.10
2022-07-31T14:35:54.596Z,1.33
2022-07-31T14:38:27.226Z,1.05
2022-07-31T14:40:55.056Z,1.13
2022-07-31T14:43:22.039Z,1.02
2022-07-31T14:45:51.606Z,1.10
2022-07-31T14:48:19.198Z,1.08
2022-07-31T14:50:46.173Z,0.90
2022-07-31T14:53:13.273Z,1.13
2022-07-31T14:55:41.609Z,1.13
2022-07-31T14:58:08.681Z,1.20
2022-07-31T15:00:35.706Z,1.08
2022-07-31T15:03:02.854Z,1.15
2022-07-31T15:06:38.298Z,1.50
2022-07-31T15:08:16.816Z,1.10
2022-07-31T15:10:43.815Z,1.25
2022-07-31T15:13:11.061Z,1.17
2022-07-31T15:15:38.069Z,1.05
2022-07-31T15:18:05.461Z,1.23
2022-07-31T15:20:35.818Z,1.10
2022-07-31T15:23:03.772Z,0.95
2022-07-31T15:25:30.893Z,1.27
2022-07-31T15:27:57.935Z,1.20
2022-07-31T15:30:24.962Z,0.95
2022-07-31T15:32:52.928Z,1.02
2022-07-31T15:35:20.515Z,1.20
2022-07-31T15:37:49.547Z,1.00
2022-07-31T15:40:17.781Z,1.35
2022-07-31T15:42:46.300Z,1.20
2022-07-31T15:45:16.281Z,1.40
2022-07-31T15:47:44.846Z,0.88
2022-07-31T15:50:21.590Z,1.30
2022-07-31T15:52:49.966Z,1.33
2022-07-31T15:55:18.507Z,1.10
2022-07-31T15:57:45.785Z,0.77
2022-07-31T16:00:14.317Z,1.20
2022-07-31T16:02:42.705Z,1.35
2022-07-31T16:05:17.255Z,1.25
2022-07-31T16:08:30.040Z,1.27
2022-07-31T16:10:36.072Z,1.00
2022-07-31T16:13:04.165Z,1.00
2022-07-31T16:15:32.181Z,1.10
2022-07-31T16:17:59.518Z,1.38
2022-07-31T16:20:27.204Z,1.13
2022-07-31T16:23:03.210Z,1.40
2022-07-31T16:25:34.710Z,1.52
2022-07-31T16:28:02.703Z,1.17
2022-07-31T16:30:29.715Z,1.20
2022-07-31T16:32:56.951Z,2.47
2022-07-31T16:35:26.416Z,1.02
2022-07-31T16:37:54.190Z,1.58
2022-07-31T16:40:30.445Z,1.02
2022-07-31T16:43:50.020Z,1.33
2022-07-31T16:45:51.454Z,1.20
2022-07-31T16:48:19.313Z,1.27
2022-07-31T16:50:53.619Z,1.55
2022-07-31T16:54:11.013Z,1.17
2022-07-31T16:56:13.892Z,1.40
2022-07-31T16:58:41.657Z,1.17
2022-07-31T17:01:57.218Z,1.75
2022-07-31T17:04:00.262Z,1.40
2022-07-31T17:06:36.481Z,1.20
2022-07-31T17:09:16.019Z,1.17
2022-07-31T17:11:53.064Z,1.45
2022-07-31T17:14:22.411Z,1.02
2022-07-31T17:16:50.843Z,1.55
2022-07-31T17:19:41.359Z,1.23
2022-07-31T17:22:07.962Z,1.20
2022-07-31T17:24:37.377Z,1.48
2022-07-31T17:27:07.698Z,0.80
2022-07-31T17:29:38.294Z,1.35
2022-07-31T17:32:05.876Z,1.23
2022-07-31T17:34:33.460Z,1.48
2022-07-31T17:37:00.482Z,1.40
2022-07-31T17:39:30.820Z,1.50
2022-07-31T17:41:59.129Z,1.05
2022-07-31T17:44:28.629Z,1.33
2022-07-31T17:46:58.048Z,1.33
2022-07-31T17:49:25.737Z,1.58
2022-07-31T17:51:58.868Z,1.30
2022-07-31T17:54:27.523Z,1.80
2022-07-31T17:56:54.674Z,1.52
2022-07-31T17:59:23.197Z,1.30
2022-07-31T18:01:52.359Z,1.17
2022-07-31T18:04:21.491Z,1.23
2022-07-31T18:06:54.490Z,1.17
2022-07-31T18:09:23.740Z,1.27
2022-07-31T18:11:52.320Z,1.63
2022-07-31T18:14:20.250Z,1.33
2022-07-31T18:16:47.917Z,2.03
2022-07-31T18:19:15.190Z,1.02
2022-07-31T18:21:42.424Z,1.55
2022-07-31T18:24:09.588Z,1.30
2022-07-31T18:26:37.520Z,1.10
2022-07-31T18:29:05.541Z,1.20
2022-07-31T18:31:34.261Z,1.30
2022-07-31T18:34:04.406Z,1.80
2022-07-31T18:36:32.737Z,1.40
2022-07-31T18:38:59.992Z,1.30
2022-07-31T18:41:27.668Z,1.45
2022-07-31T18:43:55.020Z,1.10
2022-07-31T18:46:23.866Z,1.30
2022-07-31T18:48:55.857Z,1.55
2022-07-31T18:51:24.607Z,1.20
2022-07-31T18:53:54.349Z,1.35
2022-07-31T18:56:22.931Z,0.90
2022-07-31T18:58:49.948Z,1.17
2022-07-31T19:01:17.078Z,1.50
2022-07-31T19:03:44.145Z,1.30
2022-07-31T19:06:11.190Z,1.60
2022-07-31T19:08:38.229Z,1.30
2022-07-31T19:11:05.352Z,1.40
2022-07-31T19:13:32.740Z,1.40
2022-07-31T19:15:59.922Z,1.38
2022-07-31T19:18:28.717Z,1.13
2022-07-31T19:21:18.996Z,1.23
2022-07-31T19:23:44.521Z,1.20
2022-07-31T19:26:11.962Z,1.35
2022-07-31T19:28:43.499Z,1.40
2022-07-31T19:31:11.733Z,1.50
2022-07-31T19:33:38.932Z,1.50
2022-07-31T19:36:06.475Z,1.35
2022-07-31T19:38:35.974Z,1.50
2022-07-31T19:41:03.620Z,1.20
2022-07-31T19:43:31.211Z,1.23
2022-07-31T19:46:09.702Z,2.40
2022-07-31T19:48:40.833Z,1.58
2022-07-31T19:51:08.176Z,1.50
2022-07-31T19:53:35.359Z,1.40
2022-07-31T19:56:05.946Z,1.67
2022-07-31T19:58:37.232Z,1.80
2022-07-31T20:01:05.657Z,1.52
2022-07-31T20:03:33.008Z,1.52
2022-07-31T20:06:00.731Z,2.13
2022-07-31T20:08:29.650Z,1.65
2022-07-31T20:11:04.201Z,1.80
2022-07-31T20:13:35.465Z,1.27
2022-07-31T20:16:02.730Z,1.58
2022-07-31T20:18:30.753Z,1.55
2022-07-31T20:21:03.798Z,1.40
2022-07-31T20:23:31.514Z,1.33
2022-07-31T20:25:59.163Z,1.63
2022-07-31T20:28:27.267Z,2.15
2022-07-31T20:30:54.677Z,1.60
2022-07-31T20:33:21.787Z,1.85
2022-07-31T20:35:50.598Z,1.95
2022-07-31T20:38:22.398Z,1.25
2022-07-31T20:40:54.643Z,1.52
2022-07-31T20:43:27.549Z,1.70
2022-07-31T20:46:00.099Z,1.75
2022-07-31T20:48:35.038Z,1.90
2022-07-31T20:51:04.300Z,1.63
2022-07-31T20:53:32.720Z,1.80
2022-07-31T20:55:59.939Z,1.33
2022-07-31T20:58:28.627Z,1.55
2022-07-31T21:00:55.927Z,1.52
2022-07-31T21:03:23.180Z,1.60
2022-07-31T21:05:50.584Z,1.27
2022-07-31T21:08:18.356Z,1.42
2022-07-31T21:10:45.523Z,1.77
2022-07-31T21:13:13.168Z,1.70
2022-07-31T21:15:44.845Z,1.60
2022-07-31T21:18:17.118Z,1.98
2022-07-31T21:20:52.246Z,1.67
2022-07-31T21:23:24.816Z,1.67
2022-07-31T21:25:57.353Z,1.40
2022-07-31T21:28:26.161Z,1.60
2022-07-31T21:30:56.083Z,1.27
2022-07-31T21:33:27.559Z,1.33
2022-07-31T21:35:55.435Z,1.63
2022-07-31T21:38:22.767Z,1.52
2022-07-31T21:40:51.059Z,1.67
2022-07-31T21:43:22.147Z,1.63
2022-07-31T21:45:57.607Z,2.80
2022-07-31T21:48:30.297Z,2.30
2022-07-31T21:50:58.520Z,2.50
2022-07-31T21:53:25.894Z,1.73
2022-07-31T21:55:52.967Z,1.83
2022-07-31T21:58:20.543Z,1.23
2022-07-31T22:00:47.704Z,1.70
2022-07-31T22:03:15.691Z,1.92
2022-07-31T22:06:01.663Z,1.30
2022-07-31T22:08:28.744Z,1.50
2022-07-31T22:10:56.859Z,1.42
2022-07-31T22:13:23.957Z,1.52
2022-07-31T22:16:00.068Z,1.60
2022-07-31T22:18:33.154Z,1.55
2022-07-31T22:21:01.959Z,1.48
2022-07-31T22:23:29.833Z,1.77
2022-07-31T22:25:57.506Z,1.40
2022-07-31T22:28:27.013Z,1.33
2022-07-31T22:30:55.317Z,1.35
2022-07-31T22:33:23.207Z,1.20
2022-07-31T22:35:58.515Z,1.40
2022-07-31T22:38:28.341Z,1.50
2022-07-31T22:40:55.436Z,1.63
2022-07-31T22:44:10.556Z,1.40
2022-07-31T22:46:12.385Z,1.50
2022-07-31T22:48:41.019Z,1.42
2022-07-31T22:51:10.822Z,1.50
2022-07-31T22:53:42.749Z,1.77
2022-07-31T22:56:09.766Z,1.50
2022-07-31T22:58:36.858Z,1.17
2022-07-31T23:01:04.409Z,1.48
2022-07-31T23:03:31.511Z,1.27
2022-07-31T23:06:02.397Z,1.50
2022-07-31T23:08:45.530Z,0.95
2022-07-31T23:11:12.788Z,1.50
2022-07-31T23:13:39.890Z,1.50
2022-07-31T23:16:07.001Z,1.20
2022-07-31T23:18:34.035Z,1.38
2022-07-31T23:21:01.194Z,1.35
2022-07-31T23:23:28.677Z,1.20
2022-07-31T23:25:55.803Z,1.20
2022-07-31T23:28:23.617Z,1.42
2022-07-31T23:30:50.618Z,1.33
2022-07-31T23:33:18.674Z,1.42
2022-07-31T23:35:45.672Z,1.40
2022-07-31T23:38:12.669Z,1.83
2022-07-31T23:40:39.775Z,1.30
2022-07-31T23:43:06.862Z,1.40
2022-07-31T23:45:36.041Z,1.42
2022-07-31T23:48:04.102Z,1.35
2022-07-31T23:50:33.010Z,1.40
2022-07-31T23:53:00.087Z,1.33
2022-07-31T23:55:27.184Z,1.77
2022-07-31T23:57:54.426Z,1.63
